Time;durP1;ratioP1;P1;durP2;ratioP2;P2;SDS_P1;SDS_P2;PMS_P1;PMS_P2;Temp;Humidity;BMP_temperature;BMP_pressure;BME280_temperature;BME280_humidity;BME280_pressure;Samples;Min_cycle;Max_cycle;Signal;HPM_P1;HPM_P2
2021/07/24 00:01:33;;;;;;;;;;;;;;;-148.22;100.00;58358.63;5076218;28;1298;-80
2021/07/24 00:04:00;;;;;;;;;;;;;;;-148.22;100.00;58358.63;5075138;28;1403;-81
2021/07/24 00:06:28;;;;;;;;;;;;;;;-148.22;100.00;58358.63;5074741;28;1438;-80
2021/07/24 00:09:04;;;;;;;;;;;;;;;-148.22;100.00;58358.63;5074725;28;1192;-81
2021/07/24 00:12:00;;;;;;;;;;;;;;;-148.22;100.00;58358.63;5074893;28;1201;-80
2021/07/24 00:14:26;;;;;;;;;;;;;;;-148.22;100.00;58358.63;5017239;28;1253;-80
2021/07/24 00:16:52;;;;;;;;;;;;;;;-148.22;100.00;58358.63;5034071;28;893;-81
2021/07/24 00:19:18;;;;;;;;;;;;;;;-148.22;100.00;58358.63;5033853;28;988;-80
2021/07/24 00:21:44;;;;;;;;;;;;;;;-148.22;100.00;58358.63;5033819;28;810;-81
2021/07/24 00:24:10;;;;;;;;;;;;;;;-148.22;100.00;58358.63;5017131;28;1389;-80
2021/07/24 00:26:37;;;;;;;;;;;;;;;-148.22;100.00;58358.63;5033902;28;1020;-81
2021/07/24 00:29:13;;;;;;;;;;;;;;;-148.22;100.00;58358.63;5033829;28;862;-80
2021/07/24 00:31:40;;;;;;;;;;;;;;;-148.22;100.00;58358.63;5017173;28;1388;-81
2021/07/24 00:34:08;;;;;;;;;;;;;;;-148.22;100.00;58358.63;5017113;28;1961;-81
2021/07/24 00:36:35;;;;;;;;;;;;;;;-148.22;100.00;58358.63;5017146;28;1200;-80
2021/07/24 00:39:03;;;;;;;;;;;;;;;-148.22;100.00;58358.63;5017175;28;1159;-81
2021/07/24 00:41:30;;;;;;;;;;;;;;;-148.22;100.00;58358.63;5016909;28;1432;-80
2021/07/24 00:44:06;;;;;;;;;;;;;;;-148.22;100.00;58358.63;5017076;28;1275;-80
2021/07/24 00:46:31;;;;;;;;;;;;;;;-148.22;100.00;58358.63;5017056;28;1193;-80
2021/07/24 00:49:00;;;;;;;;;;;;;;;-148.22;100.00;58358.63;5016976;28;1329;-80
2021/07/24 00:51:32;;;;;;;;;;;;;;;-148.22;100.00;58358.63;5060091;28;1308;-81
2021/07/24 00:54:01;;;;;;;;;;;;;;;-148.22;100.00;58358.63;5074629;28;1969;-80
2021/07/24 00:56:28;;;;;;;;;;;;;;;-148.22;100.00;58358.63;5078835;28;1162;-80
2021/07/24 00:58:57;;;;;;;;;;;;;;;-148.22;100.00;58358.63;5079831;28;909;-80
2021/07/24 01:01:25;;;;;;;;;;;;;;;-148.22;100.00;58358.63;5079508;28;825;-80
2021/07/24 01:04:01;;;;;;;;;;;;;;;-148.22;100.00;58358.63;5078839;28;1306;-80
2021/07/24 01:06:26;;;;;;;;;;;;;;;-148.22;100.00;58358.63;5079532;28;786;-81
2021/07/24 01:09:02;;;;;;;;;;;;;;;-148.22;100.00;58358.63;5079460;28;841;-80
2021/07/24 01:11:28;;;;;;;;;;;;;;;-148.22;100.00;58358.63;5079436;28;767;-80
2021/07/24 01:14:04;;;;;;;;;;;;;;;-148.22;100.00;58358.63;5079355;28;1955;-80
2021/07/24 01:16:29;;;;;;;;;;;;;;;-148.22;100.00;58358.63;5077949;28;1322;-80
2021/07/24 01:18:55;;;;;;;;;;;;;;;-148.22;100.00;58358.63;5078003;28;1281;-80
2021/07/24 01:21:25;;;;;;;;;;;;;;;-148.22;100.00;58358.63;5079214;28;882;-80
2021/07/24 01:24:03;;;;;;;;;;;;;;;-148.22;100.00;58358.63;5079153;28;873;-80
2021/07/24 01:26:35;;;;;;;;;;;;;;;-148.22;100.00;58358.63;5077920;28;1235;-80
2021/07/24 01:29:00;;;;;;;;;;;;;;;-148.22;100.00;58358.63;5077711;28;1172;-80
2021/07/24 01:31:25;;;;;;;;;;;;;;;-148.22;100.00;58358.63;5077754;28;1298;-81
2021/07/24 01:34:03;;;;;;;;;;;;;;;-148.22;100.00;58358.63;5077615;28;1963;-80
2021/07/24 01:36:43;;;;;;;;;;;;;;;-148.22;100.00;58358.63;5077508;28;1164;-80
2021/07/24 01:39:11;;;;;;;;;;;;;;;-148.22;100.00;58358.63;5078829;28;890;-80
2021/07/24 01:41:42;;;;;;;;;;;;;;;-148.22;100.00;58358.63;5078871;28;864;-80
2021/07/24 01:44:08;;;;;;;;;;;;;;;-148.22;100.00;58358.63;5078518;28;1000;-80
2021/07/24 01:46:33;;;;;;;;;;;;;;;-148.22;100.00;58358.63;5058973;28;1094;-80
2021/07/24 01:55:06;;;;;;;;;;;;;;;-148.22;100.00;58358.63;4997258;28;665;-80
2021/07/24 01:57:34;;;;;;;;;;;;;;;-148.22;100.00;58358.63;4980792;28;1170;-80
2021/07/24 02:00:11;;;;;;;;;;;;;;;-148.22;100.00;58358.63;4996958;28;779;-80
2021/07/24 02:02:37;;;;;;;;;;;;;;;-148.22;100.00;58358.63;4980650;28;1288;-80
2021/07/24 02:05:04;;;;;;;;;;;;;;;-148.22;100.00;58358.63;4996751;28;760;-80
2021/07/24 02:07:40;;;;;;;;;;;;;;;-148.22;100.00;58358.63;4980659;28;1346;-80
2021/07/24 02:10:07;;;;;;;;;;;;;;;-148.22;100.00;58358.63;4980537;28;1226;-80
2021/07/24 02:12:43;;;;;;;;;;;;;;;-148.22;100.00;58358.63;4980522;28;1898;-80
2021/07/24 02:15:09;;;;;;;;;;;;;;;-148.22;100.00;58358.63;4996826;28;1059;-80
2021/07/24 02:17:36;;;;;;;;;;;;;;;-148.22;100.00;58358.63;4980531;28;1174;-80
2021/07/24 02:20:02;;;;;;;;;;;;;;;-148.22;100.00;58358.63;4980786;28;1273;-80
2021/07/24 02:22:28;;;;;;;;;;;;;;;-148.22;100.00;58358.63;4980259;28;1246;-81
2021/07/24 02:24:55;;;;;;;;;;;;;;;-148.22;100.00;58358.63;4980589;28;1217;-80
2021/07/24 02:27:29;;;;;;;;;;;;;;;-148.22;100.00;58358.63;4982868;28;1462;-80
2021/07/24 02:29:58;;;;;;;;;;;;;;;-148.22;100.00;58358.63;5057857;28;835;-80
2021/07/24 02:32:23;;;;;;;;;;;;;;;-148.22;100.00;58358.63;5056551;28;1894;-80
2021/07/24 02:35:17;;;;;;;;;;;;;;;-148.22;100.00;58358.63;5057898;28;767;-80
2021/07/24 02:37:44;;;;;;;;;;;;;;;-148.22;100.00;58358.63;4996326;28;1105;-80
2021/07/24 02:40:10;;;;;;;;;;;;;;;-148.22;100.00;58358.63;4979930;28;1294;-80
2021/07/24 02:42:36;;;;;;;;;;;;;;;-148.22;100.00;58358.63;4979942;28;1229;-80
2021/07/24 02:45:02;;;;;;;;;;;;;;;-148.22;100.00;58358.63;4978258;28;1192;-80
2021/07/24 02:47:29;;;;;;;;;;;;;;;-148.22;100.00;58358.63;4979561;28;1373;-80
2021/07/24 02:49:56;;;;;;;;;;;;;;;-148.22;100.00;58358.63;4975295;28;1250;-80
2021/07/24 02:52:22;;;;;;;;;;;;;;;-148.22;100.00;58358.63;4976510;28;1910;-80
2021/07/24 02:54:48;;;;;;;;;;;;;;;-148.22;100.00;58358.63;4976501;28;1201;-80
2021/07/24 02:57:16;;;;;;;;;;;;;;;-148.22;100.00;58358.63;4976743;28;1010;-80
2021/07/24 03:00:15;;;;;;;;;;;;;;;-148.22;100.00;58358.63;4976568;28;985;-80
2021/07/24 03:02:40;;;;;;;;;;;;;;;-148.22;100.00;58358.63;4960175;28;1257;-80
2021/07/24 03:05:16;;;;;;;;;;;;;;;-148.22;100.00;58358.63;4976499;28;1041;-80
2021/07/24 03:07:42;;;;;;;;;;;;;;;-148.22;100.00;58358.63;4976105;28;1290;-80
2021/07/24 03:10:08;;;;;;;;;;;;;;;-148.22;100.00;58358.63;4976362;28;1205;-81
2021/07/24 03:12:33;;;;;;;;;;;;;;;-148.22;100.00;58358.63;4976008;28;1953;-80
2021/07/24 03:15:07;;;;;;;;;;;;;;;-148.22;100.00;58358.63;5019429;28;1061;-80
2021/07/24 03:17:33;;;;;;;;;;;;;;;-148.22;100.00;58358.63;5035095;28;1199;-80
2021/07/24 03:19:59;;;;;;;;;;;;;;;-148.22;100.00;58358.63;5037036;28;1091;-80
2021/07/24 03:22:24;;;;;;;;;;;;;;;-148.22;100.00;58358.63;5036945;28;835;-80
2021/07/24 03:25:00;;;;;;;;;;;;;;;-148.22;100.00;58358.63;5036959;28;811;-80
2021/07/24 03:27:27;;;;;;;;;;;;;;;-148.22;100.00;58358.63;5037011;28;1005;-82
2021/07/24 03:29:54;;;;;;;;;;;;;;;-148.22;100.00;58358.63;5035459;28;1391;-80
2021/07/24 03:32:31;;;;;;;;;;;;;;;-148.22;100.00;58358.63;5036726;28;1890;-80
2021/07/24 03:34:56;;;;;;;;;;;;;;;-148.22;100.00;58358.63;5035441;28;1278;-81
2021/07/24 03:37:41;;;;;;;;;;;;;;;-148.22;100.00;58358.63;5035427;28;1159;-81
2021/07/24 03:40:12;;;;;;;;;;;;;;;-148.22;100.00;58358.63;5035348;28;1399;-80
2021/07/24 03:42:39;;;;;;;;;;;;;;;-148.22;100.00;58358.63;5036581;28;957;-81
2021/07/24 03:45:04;;;;;;;;;;;;;;;-148.22;100.00;58358.63;5038613;28;1413;-81
2021/07/24 03:47:31;;;;;;;;;;;;;;;-148.22;100.00;58358.63;5051852;28;1225;-81
2021/07/24 03:49:57;;;;;;;;;;;;;;;-148.22;100.00;58358.63;5035265;28;1386;-80
2021/07/24 03:52:22;;;;;;;;;;;;;;;-148.22;100.00;58358.63;5036391;28;1910;-80
2021/07/24 03:54:54;;;;;;;;;;;;;;;-148.22;100.00;58358.63;5036429;28;1063;-80
2021/07/24 03:57:34;;;;;;;;;;;;;;;-148.22;100.00;58358.63;5036365;28;877;-80
2021/07/24 04:00:03;;;;;;;;;;;;;;;-148.22;100.00;58358.63;5036207;28;786;-80
2021/07/24 04:02:32;;;;;;;;;;;;;;;-148.22;100.00;58358.63;5036174;28;1224;-81
2021/07/24 04:04:57;;;;;;;;;;;;;;;-148.22;100.00;58358.63;5036249;28;814;-80
2021/07/24 04:07:23;;;;;;;;;;;;;;;-148.22;100.00;58358.63;5036135;28;1054;-81
2021/07/24 04:09:52;;;;;;;;;;;;;;;-148.22;100.00;58358.63;5036184;28;823;-80
2021/07/24 04:12:18;;;;;;;;;;;;;;;-148.22;100.00;58358.63;5036151;28;1985;-80
2021/07/24 04:14:45;;;;;;;;;;;;;;;-148.22;100.00;58358.63;5034853;28;969;-80
2021/07/24 04:17:12;;;;;;;;;;;;;;;-148.22;100.00;58358.63;5036013;28;985;-80
2021/07/24 04:19:37;;;;;;;;;;;;;;;-148.22;100.00;58358.63;5036034;28;1004;-80
2021/07/24 04:22:03;;;;;;;;;;;;;;;-148.22;100.00;58358.63;5035958;28;1023;-80
2021/07/24 04:24:38;;;;;;;;;;;;;;;-148.22;100.00;58358.63;5034186;28;1164;-80
2021/07/24 04:27:05;;;;;;;;;;;;;;;-148.22;100.00;58358.63;5035873;28;965;-80
2021/07/24 04:29:36;;;;;;;;;;;;;;;-148.22;100.00;58358.63;5048246;28;1160;-81
2021/07/24 04:32:03;;;;;;;;;;;;;;;-148.22;100.00;58358.63;5055934;28;1039;-80
2021/07/24 04:34:35;;;;;;;;;;;;;;;-148.22;100.00;58358.63;5055834;28;838;-81
2021/07/24 04:37:01;;;;;;;;;;;;;;;-148.22;100.00;58358.63;5071247;28;1167;-80
2021/07/24 04:39:26;;;;;;;;;;;;;;;-148.22;100.00;58358.63;5054404;28;1316;-81
2021/07/24 04:41:52;;;;;;;;;;;;;;;-148.22;100.00;58358.63;5055664;28;1000;-80
2021/07/24 04:44:24;;;;;;;;;;;;;;;-148.22;100.00;58358.63;5055683;28;1068;-81
2021/07/24 04:46:50;;;;;;;;;;;;;;;-148.22;100.00;58358.63;5091349;28;1137;-81
2021/07/24 04:49:25;;;;;;;;;;;;;;;-148.22;100.00;58358.63;5095866;28;814;-81
2021/07/24 04:51:52;;;;;;;;;;;;;;;-148.22;100.00;58358.63;5095746;28;1036;-80
2021/07/24 04:54:21;;;;;;;;;;;;;;;-148.22;100.00;58358.63;5077432;28;1894;-81
2021/07/24 04:57:21;;;;;;;;;;;;;;;-148.22;100.00;58358.63;5095668;28;1241;-80
2021/07/24 04:59:48;;;;;;;;;;;;;;;-148.22;100.00;58358.63;5036519;28;1200;-81
2021/07/24 05:02:20;;;;;;;;;;;;;;;-148.22;100.00;58358.63;5036706;28;1311;-80
2021/07/24 05:04:47;;;;;;;;;;;;;;;-148.22;100.00;58358.63;5053341;28;1339;-80
2021/07/24 05:07:14;;;;;;;;;;;;;;;-148.22;100.00;58358.63;5036670;28;1199;-80
2021/07/24 05:09:40;;;;;;;;;;;;;;;-148.22;100.00;58358.63;5053307;28;1056;-80
2021/07/24 05:12:07;;;;;;;;;;;;;;;-148.22;100.00;58358.63;5036544;28;1976;-80
2021/07/24 05:14:33;;;;;;;;;;;;;;;-148.22;100.00;58358.63;5036568;28;1321;-81
2021/07/24 05:17:11;;;;;;;;;;;;;;;-148.22;100.00;58358.63;5036559;28;1231;-80
2021/07/24 05:19:46;;;;;;;;;;;;;;;-148.22;100.00;58358.63;5036537;28;1198;-80
2021/07/24 05:22:13;;;;;;;;;;;;;;;-148.22;100.00;58358.63;5036514;28;1231;-80
2021/07/24 05:24:43;;;;;;;;;;;;;;;-148.22;100.00;58358.63;5053103;28;1171;-81
2021/07/24 05:27:16;;;;;;;;;;;;;;;-148.22;100.00;58358.63;5052991;28;1310;-80
2021/07/24 05:29:42;;;;;;;;;;;;;;;-148.22;100.00;58358.63;5036396;28;1315;-81
2021/07/24 05:32:25;;;;;;;;;;;;;;;-148.22;100.00;58358.63;5036311;28;1898;-81
2021/07/24 05:34:51;;;;;;;;;;;;;;;-148.22;100.00;58358.63;5075763;28;1172;-81
2021/07/24 05:37:36;;;;;;;;;;;;;;;-148.22;100.00;58358.63;5077218;28;1243;-80
2021/07/24 05:40:27;;;;;;;;;;;;;;;-148.22;100.00;58358.63;5077651;28;1233;-81
2021/07/24 05:43:06;;;;;;;;;;;;;;;-148.22;100.00;58358.63;5039996;28;1406;-81
2021/07/24 05:45:32;;;;;;;;;;;;;;;-148.22;100.00;58358.63;5038783;28;1509;-80
2021/07/24 05:47:58;;;;;;;;;;;;;;;-148.22;100.00;58358.63;5036567;28;1209;-81
2021/07/24 05:50:48;;;;;;;;;;;;;;;-148.22;100.00;58358.63;5036707;28;968;-81
2021/07/24 05:53:14;;;;;;;;;;;;;;;-148.22;100.00;58358.63;5019959;28;1977;-80
2021/07/24 05:55:55;;;;;;;;;;;;;;;-148.22;100.00;58358.63;5019989;28;1248;-80
2021/07/24 05:58:20;;;;;;;;;;;;;;;-148.22;100.00;58358.63;5036482;28;1386;-81
2021/07/24 06:00:46;;;;;;;;;;;;;;;-148.22;100.00;58358.63;5036484;28;1185;-80
2021/07/24 06:03:14;;;;;;;;;;;;;;;-148.22;100.00;58358.63;5036382;28;1171;-80
2021/07/24 06:05:40;;;;;;;;;;;;;;;-148.22;100.00;58358.63;5019826;28;1189;-81
2021/07/24 06:08:07;;;;;;;;;;;;;;;-148.22;100.00;58358.63;5019858;28;1172;-81
2021/07/24 06:10:34;;;;;;;;;;;;;;;-148.22;100.00;58358.63;5036304;28;866;-81
2021/07/24 06:13:00;;;;;;;;;;;;;;;-148.22;100.00;58358.63;5019691;28;1886;-81
2021/07/24 06:15:29;;;;;;;;;;;;;;;-148.22;100.00;58358.63;5036319;28;775;-81
2021/07/24 06:18:25;;;;;;;;;;;;;;;-148.22;100.00;58358.63;5019706;28;1305;-81
2021/07/24 06:21:01;;;;;;;;;;;;;;;-148.22;100.00;58358.63;4977217;28;1056;-82
2021/07/24 06:23:46;;;;;;;;;;;;;;;-148.22;100.00;58358.63;4961180;28;1229;-81
2021/07/24 06:26:12;;;;;;;;;;;;;;;-148.22;100.00;58358.63;4961085;28;1185;-80
2021/07/24 06:28:49;;;;;;;;;;;;;;;-148.22;100.00;58358.63;4977170;28;1017;-81
2021/07/24 06:31:14;;;;;;;;;;;;;;;-148.22;100.00;58358.63;4977207;28;1077;-81
2021/07/24 06:33:42;;;;;;;;;;;;;;;-148.22;100.00;58358.63;4977197;28;1886;-81
2021/07/24 06:36:08;;;;;;;;;;;;;;;-148.22;100.00;58358.63;4960623;28;1338;-81
2021/07/24 06:38:35;;;;;;;;;;;;;;;-148.22;100.00;58358.63;4977378;28;952;-80
2021/07/24 06:41:10;;;;;;;;;;;;;;;-148.22;100.00;58358.63;4960724;28;1189;-81
2021/07/24 06:43:37;;;;;;;;;;;;;;;-148.22;100.00;58358.63;4977230;28;918;-81
2021/07/24 06:46:09;;;;;;;;;;;;;;;-148.22;100.00;58358.63;4980632;28;1232;-81
2021/07/24 06:48:34;;;;;;;;;;;;;;;-148.22;100.00;58358.63;4999447;28;1229;-81
2021/07/24 06:50:59;;;;;;;;;;;;;;;-148.22;100.00;58358.63;4999423;28;1245;-81
2021/07/24 06:53:26;;;;;;;;;;;;;;;-148.22;100.00;58358.63;4998350;28;1910;-81
2021/07/24 06:55:56;;;;;;;;;;;;;;;-148.22;100.00;58358.63;5015702;28;1079;-82
2021/07/24 06:58:24;;;;;;;;;;;;;;;-148.22;100.00;58358.63;5074124;28;1189;-81
2021/07/24 07:00:52;;;;;;;;;;;;;;;-148.22;100.00;58358.63;5075471;28;876;-82
2021/07/24 07:03:27;;;;;;;;;;;;;;;-148.22;100.00;58358.63;5066155;28;1484;-81
2021/07/24 07:05:54;;;;;;;;;;;;;;;-148.22;100.00;58358.63;5076144;28;1164;-81
2021/07/24 07:08:25;;;;;;;;;;;;;;;-148.22;100.00;58358.63;5092865;28;1183;-81
2021/07/24 07:10:51;;;;;;;;;;;;;;;-148.22;100.00;58358.63;5076106;28;1273;-81
2021/07/24 07:13:18;;;;;;;;;;;;;;;-148.22;100.00;58358.63;5077160;28;1953;-81
2021/07/24 07:16:11;;;;;;;;;;;;;;;-148.22;100.00;58358.63;5092659;28;1081;-81
2021/07/24 07:18:38;;;;;;;;;;;;;;;-148.22;100.00;58358.63;5015344;28;1164;-81
2021/07/24 07:21:07;;;;;;;;;;;;;;;-148.22;100.00;58358.63;5015346;28;1062;-81
2021/07/24 07:23:44;;;;;;;;;;;;;;;-148.22;100.00;58358.63;4998737;28;1177;-81
2021/07/24 07:26:11;;;;;;;;;;;;;;;-148.22;100.00;58358.63;5015160;28;1378;-81
2021/07/24 07:28:37;;;;;;;;;;;;;;;-148.22;100.00;58358.63;4998683;28;1195;-80
2021/07/24 07:31:03;;;;;;;;;;;;;;;-148.22;100.00;58358.63;5015340;28;1025;-81
2021/07/24 07:34:01;;;;;;;;;;;;;;;-148.22;100.00;58358.63;4998544;28;1973;-81
2021/07/24 07:36:26;;;;;;;;;;;;;;;-148.22;100.00;58358.63;5014770;28;1280;-82
2021/07/24 07:38:52;;;;;;;;;;;;;;;-148.22;100.00;58358.63;4998476;28;1211;-82
2021/07/24 07:41:18;;;;;;;;;;;;;;;-148.22;100.00;58358.63;4998481;28;1398;-81
2021/07/24 07:43:53;;;;;;;;;;;;;;;-148.22;100.00;58358.63;4998546;28;1262;-81
2021/07/24 07:46:50;;;;;;;;;;;;;;;-148.22;100.00;58358.63;5014520;28;909;-81
2021/07/24 07:49:15;;;;;;;;;;;;;;;-148.22;100.00;58358.63;4995113;28;1065;-81
2021/07/24 07:51:40;;;;;;;;;;;;;;;-148.22;100.00;58358.63;4978661;28;1267;-81
2021/07/24 07:54:20;;;;;;;;;;;;;;;-148.22;100.00;58358.63;4994958;28;2001;-81
2021/07/24 07:56:51;;;;;;;;;;;;;;;-148.22;100.00;58358.63;5054995;28;1201;-80
2021/07/24 07:59:19;;;;;;;;;;;;;;;-148.22;100.00;58358.63;5055107;28;1241;-81
2021/07/24 08:01:46;;;;;;;;;;;;;;;-148.22;100.00;58358.63;5054927;28;1225;-80
2021/07/24 08:04:12;;;;;;;;;;;;;;;-148.22;100.00;58358.63;5055852;28;1040;-81
2021/07/24 08:06:46;;;;;;;;;;;;;;;-148.22;100.00;58358.63;5056309;28;980;-81
2021/07/24 08:09:12;;;;;;;;;;;;;;;-148.22;100.00;58358.63;5054955;28;1323;-81
2021/07/24 08:11:45;;;;;;;;;;;;;;;-148.22;100.00;58358.63;5054774;28;1306;-80
2021/07/24 08:14:13;;;;;;;;;;;;;;;-148.22;100.00;58358.63;5054672;28;1886;-80
2021/07/24 08:16:41;;;;;;;;;;;;;;;-148.22;100.00;58358.63;5054874;28;1212;-81
2021/07/24 08:19:07;;;;;;;;;;;;;;;-148.22;100.00;58358.63;5056099;28;1016;-80
2021/07/24 08:21:39;;;;;;;;;;;;;;;-148.22;100.00;58358.63;5054651;28;1252;-80
2021/07/24 08:24:04;;;;;;;;;;;;;;;-148.22;100.00;58358.63;5054708;28;1380;-80
2021/07/24 08:26:30;;;;;;;;;;;;;;;-148.22;100.00;58358.63;5049118;28;1141;-82
2021/07/24 08:29:20;;;;;;;;;;;;;;;-148.22;100.00;58358.63;5035239;28;1257;-80
2021/07/24 08:31:45;;;;;;;;;;;;;;;-148.22;100.00;58358.63;5034430;28;1312;-81
2021/07/24 08:34:11;;;;;;;;;;;;;;;-148.22;100.00;58358.63;5035638;28;1882;-81
2021/07/24 08:36:38;;;;;;;;;;;;;;;-148.22;100.00;58358.63;5034492;28;1325;-81
2021/07/24 08:39:04;;;;;;;;;;;;;;;-148.22;100.00;58358.63;5035816;28;830;-81
2021/07/24 08:41:31;;;;;;;;;;;;;;;-148.22;100.00;58358.63;5034482;28;1356;-81
2021/07/24 08:43:58;;;;;;;;;;;;;;;-148.22;100.00;58358.63;5035759;28;894;-80
2021/07/24 08:46:34;;;;;;;;;;;;;;;-148.22;100.00;58358.63;5034304;28;1341;-81
2021/07/24 08:49:00;;;;;;;;;;;;;;;-148.22;100.00;58358.63;5075529;28;1004;-80
2021/07/24 08:51:34;;;;;;;;;;;;;;;-148.22;100.00;58358.63;5074372;28;1337;-81
2021/07/24 08:54:05;;;;;;;;;;;;;;;-148.22;100.00;58358.63;5075368;28;1971;-80
2021/07/24 08:56:33;;;;;;;;;;;;;;;-148.22;100.00;58358.63;5057663;28;1350;-81
2021/07/24 08:59:10;;;;;;;;;;;;;;;-148.22;100.00;58358.63;5080457;28;1694;-80
2021/07/24 09:01:36;;;;;;;;;;;;;;;-148.22;100.00;58358.63;5077613;28;1306;-80
2021/07/24 09:04:05;;;;;;;;;;;;;;;-148.22;100.00;58358.63;5077636;28;1348;-80
2021/07/24 09:06:40;;;;;;;;;;;;;;;-148.22;100.00;58358.63;5077478;28;1186;-81
2021/07/24 09:09:14;;;;;;;;;;;;;;;-148.22;100.00;58358.63;5095765;28;811;-80
2021/07/24 09:11:41;;;;;;;;;;;;;;;-148.22;100.00;58358.63;5077495;28;1150;-81
2021/07/24 09:14:07;;;;;;;;;;;;;;;-148.22;100.00;58358.63;5077498;28;1958;-82
2021/07/24 09:16:49;;;;;;;;;;;;;;;-148.22;100.00;58358.63;5080503;28;1297;-81
2021/07/24 09:19:24;;;;;;;;;;;;;;;-148.22;100.00;58358.63;5081470;28;1218;-81
2021/07/24 09:21:49;;;;;;;;;;;;;;;-148.22;100.00;58358.63;5081373;28;1300;-81
2021/07/24 09:24:23;;;;;;;;;;;;;;;-148.22;100.00;58358.63;5099573;28;992;-81
2021/07/24 09:26:48;;;;;;;;;;;;;;;-148.22;100.00;58358.63;5081120;28;1316;-81
2021/07/24 09:29:17;;;;;;;;;;;;;;;-148.22;100.00;58358.63;5099223;28;817;-80
2021/07/24 09:31:43;;;;;;;;;;;;;;;-148.22;100.00;58358.63;5099353;28;846;-81
2021/07/24 09:34:10;;;;;;;;;;;;;;;-148.22;100.00;58358.63;5099206;28;1890;-80
2021/07/24 09:36:36;;;;;;;;;;;;;;;-148.22;100.00;58358.63;5099231;28;1016;-81
2021/07/24 09:39:10;;;;;;;;;;;;;;;-148.22;100.00;58358.63;5099228;28;885;-81
2021/07/24 09:41:44;;;;;;;;;;;;;;;-148.22;100.00;58358.63;5080974;28;1375;-81
2021/07/24 09:44:38;;;;;;;;;;;;;;;-148.22;100.00;58358.63;5099127;28;1017;-80
2021/07/24 09:47:34;;;;;;;;;;;;;;;-148.22;100.00;58358.63;5076793;28;1318;-80
2021/07/24 09:50:08;;;;;;;;;;;;;;;-148.22;100.00;58358.63;5016763;28;1505;-81
2021/07/24 09:52:55;;;;;;;;;;;;;;;-148.22;100.00;58358.63;5016861;28;1975;-80
2021/07/24 09:55:22;;;;;;;;;;;;;;;-148.22;100.00;58358.63;5000199;28;1386;-81
2021/07/24 09:57:49;;;;;;;;;;;;;;;-148.22;100.00;58358.63;5000286;28;1232;-81
2021/07/24 10:00:24;;;;;;;;;;;;;;;-148.22;100.00;58358.63;5016577;28;1397;-81
2021/07/24 10:03:24;;;;;;;;;;;;;;;-148.22;100.00;58358.63;5016787;28;850;-80
2021/07/24 10:05:50;;;;;;;;;;;;;;;-148.22;100.00;58358.63;4977707;28;1005;-80
2021/07/24 10:08:20;;;;;;;;;;;;;;;-148.22;100.00;58358.63;4961404;28;1263;-80
2021/07/24 10:10:48;;;;;;;;;;;;;;;-148.22;100.00;58358.63;4977553;28;1045;-80
2021/07/24 10:13:15;;;;;;;;;;;;;;;-148.22;100.00;58358.63;4961191;28;1958;-80
2021/07/24 10:16:00;;;;;;;;;;;;;;;-148.22;100.00;58358.63;4961329;28;1374;-81
2021/07/24 10:18:27;;;;;;;;;;;;;;;-148.22;100.00;58358.63;4977417;28;1038;-80
2021/07/24 10:20:54;;;;;;;;;;;;;;;-148.22;100.00;58358.63;4961069;28;1324;-80
2021/07/24 10:23:23;;;;;;;;;;;;;;;-148.22;100.00;58358.63;4977357;28;1060;-80
2021/07/24 10:26:11;;;;;;;;;;;;;;;-148.22;100.00;58358.63;4982169;28;1178;-80
2021/07/24 10:28:54;;;;;;;;;;;;;;;-148.22;100.00;58358.63;4999665;28;1240;-81
2021/07/24 10:31:44;;;;;;;;;;;;;;;-148.22;100.00;58358.63;5016227;28;1070;-80
2021/07/24 10:34:09;;;;;;;;;;;;;;;-148.22;100.00;58358.63;4999596;28;1899;-80
2021/07/24 10:36:38;;;;;;;;;;;;;;;-148.22;100.00;58358.63;5000114;28;1212;-81
2021/07/24 10:39:18;;;;;;;;;;;;;;;-148.22;100.00;58358.63;4999581;28;1351;-80
2021/07/24 10:41:44;;;;;;;;;;;;;;;-148.22;100.00;58358.63;5012009;28;1291;-80
2021/07/24 10:44:11;;;;;;;;;;;;;;;-148.22;100.00;58358.63;5035651;28;1238;-81
2021/07/24 10:46:57;;;;;;;;;;;;;;;-148.22;100.00;58358.63;5035722;28;1491;-81
2021/07/24 10:49:22;;;;;;;;;;;;;;;-148.22;100.00;58358.63;5015408;28;1370;-81
2021/07/24 10:52:18;;;;;;;;;;;;;;;-148.22;100.00;58358.63;4999421;28;1297;-81
2021/07/24 10:54:53;;;;;;;;;;;;;;;-148.22;100.00;58358.63;4985267;28;1903;-81
2021/07/24 10:57:38;;;;;;;;;;;;;;;-148.22;100.00;58358.63;4999550;28;1298;-81
2021/07/24 11:00:21;;;;;;;;;;;;;;;-148.22;100.00;58358.63;4999101;28;1319;-81
2021/07/24 11:02:48;;;;;;;;;;;;;;;-148.22;100.00;58358.63;4997873;28;1277;-81
2021/07/24 11:05:30;;;;;;;;;;;;;;;-148.22;100.00;58358.63;5011466;28;1272;-81
2021/07/24 11:07:57;;;;;;;;;;;;;;;-148.22;100.00;58358.63;5038634;28;1411;-81
2021/07/24 11:10:25;;;;;;;;;;;;;;;-148.22;100.00;58358.63;5055261;28;842;-80
2021/07/24 11:16:07;;;;;;;;;;;;;;;-148.22;100.00;58358.63;4995703;28;951;-80
2021/07/24 11:19:04;;;;;;;;;;;;;;;-148.22;100.00;58358.63;4995789;28;1085;-80
2021/07/24 11:21:57;;;;;;;;;;;;;;;-148.22;100.00;58358.63;4978738;28;1239;-81
2021/07/24 11:24:41;;;;;;;;;;;;;;;-148.22;100.00;58358.63;4979129;28;1322;-81
2021/07/24 11:27:08;;;;;;;;;;;;;;;-148.22;100.00;58358.63;4994156;28;1323;-81
2021/07/24 11:29:52;;;;;;;;;;;;;;;-148.22;100.00;58358.63;5015084;28;1303;-81
2021/07/24 11:32:29;;;;;;;;;;;;;;;-148.22;100.00;58358.63;5015014;28;1164;-81
2021/07/24 11:35:05;;;;;;;;;;;;;;;-148.22;100.00;58358.63;5014771;28;1185;-81
2021/07/24 11:38:08;;;;;;;;;;;;;;;-148.22;100.00;58358.63;5014669;28;976;-81
2021/07/24 11:40:34;;;;;;;;;;;;;;;-148.22;100.00;58358.63;4956593;29;1049;-81
2021/07/24 11:43:00;;;;;;;;;;;;;;;-148.22;100.00;58358.63;4940507;29;1289;-81
2021/07/24 11:45:27;;;;;;;;;;;;;;;-148.22;100.00;58358.63;4956514;29;1084;-81
2021/07/24 11:48:12;;;;;;;;;;;;;;;-148.22;100.00;58358.63;4938839;29;1300;-81
2021/07/24 11:50:39;;;;;;;;;;;;;;;-148.22;100.00;58358.63;4942536;28;1410;-81
2021/07/24 11:53:05;;;;;;;;;;;;;;;-148.22;100.00;58358.63;4978900;28;1914;-81
2021/07/24 11:55:34;;;;;;;;;;;;;;;-148.22;100.00;58358.63;4994911;28;1429;-81
2021/07/24 11:58:19;;;;;;;;;;;;;;;-148.22;100.00;58358.63;4978805;28;1372;-81
2021/07/24 12:00:46;;;;;;;;;;;;;;;-148.22;100.00;58358.63;4994965;28;1316;-81
2021/07/24 12:03:14;;;;;;;;;;;;;;;-148.22;100.00;58358.63;4978825;28;1396;-81
2021/07/24 12:05:40;;;;;;;;;;;;;;;-148.22;100.00;58358.63;4994870;28;1181;-81
2021/07/24 12:08:06;;;;;;;;;;;;;;;-148.22;100.00;58358.63;4978540;28;1300;-81
2021/07/24 12:10:40;;;;;;;;;;;;;;;-148.22;100.00;58358.63;4994712;28;1385;-81
2021/07/24 12:13:07;;;;;;;;;;;;;;;-148.22;100.00;58358.63;4994758;28;1956;-81
2021/07/24 12:15:53;;;;;;;;;;;;;;;-148.22;100.00;58358.63;5070933;28;1424;-81
2021/07/24 12:18:19;;;;;;;;;;;;;;;-148.22;100.00;58358.63;5077983;28;1262;-81
2021/07/24 12:20:49;;;;;;;;;;;;;;;-148.22;100.00;58358.63;5078241;28;1368;-81
2021/07/24 12:23:27;;;;;;;;;;;;;;;-148.22;100.00;58358.63;5096162;28;826;-81
2021/07/24 12:29:22;;;;;;;;;;;;;;;-148.22;100.00;58358.63;5096156;28;620;-81
2021/07/24 12:31:53;;;;;;;;;;;;;;;-148.22;100.00;58358.63;5077927;28;1143;-81
2021/07/24 12:34:36;;;;;;;;;;;;;;;-148.22;100.00;58358.63;5095918;28;1947;-81
2021/07/24 12:37:03;;;;;;;;;;;;;;;-148.22;100.00;58358.63;5077427;28;1506;-81
2021/07/24 12:39:33;;;;;;;;;;;;;;;-148.22;100.00;58358.63;5094350;28;1287;-81
2021/07/24 12:41:59;;;;;;;;;;;;;;;-148.22;100.00;58358.63;5077821;28;1264;-81
2021/07/24 12:44:52;;;;;;;;;;;;;;;-148.22;100.00;58358.63;5077775;28;1343;-81
2021/07/24 12:47:45;;;;;;;;;;;;;;;-148.22;100.00;58358.63;5077742;28;1337;-81
2021/07/24 12:50:14;;;;;;;;;;;;;;;-148.22;100.00;58358.63;5076962;28;1215;-81
2021/07/24 12:52:49;;;;;;;;;;;;;;;-148.22;100.00;58358.63;5077545;28;1914;-81
2021/07/24 12:55:24;;;;;;;;;;;;;;;-148.22;100.00;58358.63;5077794;28;1179;-81
2021/07/24 12:57:51;;;;;;;;;;;;;;;-148.22;100.00;58358.63;5095942;28;862;-81
2021/07/24 13:00:18;;;;;;;;;;;;;;;-148.22;100.00;58358.63;5095433;28;1031;-81
2021/07/24 13:02:44;;;;;;;;;;;;;;;-148.22;100.00;58358.63;5077406;28;1212;-81